Time;durP1;ratioP1;P1;durP2;ratioP2;P2;SDS_P1;SDS_P2;PMS_P1;PMS_P2;Temp;Humidity;BMP_temperature;BMP_pressure;BME280_temperature;BME280_humidity;BME280_pressure;Samples;Min_cycle;Max_cycle;Signal;HPM_P1;HPM_P2
2023/03/25 00:01:36;;;;;;;0.10;0.10;;;;;;;;;;4849680;29;20551;-74
2023/03/25 00:04:06;;;;;;;0.20;0.20;;;;;;;;;;4823642;29;20054;-74
2023/03/25 00:06:35;;;;;;;0.10;0.10;;;;;;;;;;4825430;29;20407;-74
2023/03/25 00:09:04;;;;;;;0.10;0.10;;;;;;;;;;4822532;29;20505;-74
2023/03/25 00:11:32;;;;;;;0.10;0.10;;;;;;;;;;4838516;29;20050;-73
2023/03/25 00:13:59;;;;;;;0.17;0.17;;;;;;;;;;4821827;29;20058;-74
2023/03/25 00:16:25;;;;;;;0.20;0.20;;;;;;;;;;4839340;29;20042;-73
2023/03/25 00:18:51;;;;;;;0.10;0.10;;;;;;;;;;4823930;29;20495;-74
2023/03/25 00:21:17;;;;;;;0.20;0.20;;;;;;;;;;4822123;29;20133;-73
2023/03/25 00:23:52;;;;;;;0.10;0.10;;;;;;;;;;4823062;29;20457;-74
2023/03/25 00:26:19;;;;;;;0.10;0.10;;;;;;;;;;4818703;29;20060;-74
2023/03/25 00:28:47;;;;;;;0.10;0.10;;;;;;;;;;4820709;29;20043;-74
2023/03/25 00:31:14;;;;;;;0.10;0.10;;;;;;;;;;4822145;29;20117;-73
2023/03/25 00:33:40;;;;;;;0.10;0.10;;;;;;;;;;4839088;29;20575;-74
2023/03/25 00:36:07;;;;;;;0.10;0.10;;;;;;;;;;4832825;29;20056;-73
2023/03/25 00:38:34;;;;;;;0.10;0.10;;;;;;;;;;4844354;29;20048;-74
2023/03/25 00:41:16;;;;;;;0.13;0.13;;;;;;;;;;4831618;29;20058;-73
2023/03/25 00:43:42;;;;;;;0.10;0.10;;;;;;;;;;4826995;29;20061;-73
2023/03/25 00:46:08;;;;;;;0.10;0.10;;;;;;;;;;4822251;29;20050;-73
2023/03/25 00:48:37;;;;;;;0.10;0.10;;;;;;;;;;4808082;29;20070;-76
2023/03/25 00:51:07;;;;;;;0.10;0.10;;;;;;;;;;4824080;29;20506;-74
2023/03/25 00:53:34;;;;;;;0.10;0.10;;;;;;;;;;4825103;29;20050;-73
2023/03/25 00:56:00;;;;;;;0.20;0.20;;;;;;;;;;4828383;29;20060;-74
2023/03/25 00:58:26;;;;;;;0.10;0.10;;;;;;;;;;4841121;29;20049;-74
2023/03/25 01:00:55;;;;;;;0.20;0.20;;;;;;;;;;4840229;29;20046;-74
2023/03/25 01:03:22;;;;;;;0.10;0.10;;;;;;;;;;4836254;29;20087;-74
2023/03/25 01:05:49;;;;;;;0.10;0.10;;;;;;;;;;4842593;29;20049;-74
2023/03/25 01:08:16;;;;;;;0.10;0.10;;;;;;;;;;4833189;29;20046;-74
2023/03/25 01:10:43;;;;;;;0.10;0.10;;;;;;;;;;4838431;23;20053;-74
2023/03/25 01:13:09;;;;;;;0.20;0.20;;;;;;;;;;4851088;29;20053;-74
2023/03/25 01:15:35;;;;;;;0.17;0.17;;;;;;;;;;4854922;29;20046;-74
2023/03/25 01:18:04;;;;;;;0.10;0.10;;;;;;;;;;4855806;29;20129;-74
2023/03/25 01:20:30;;;;;;;0.10;0.10;;;;;;;;;;4858918;29;20128;-74
2023/03/25 01:22:56;;;;;;;0.20;0.20;;;;;;;;;;4859324;29;20655;-74
2023/03/25 01:25:22;;;;;;;0.10;0.10;;;;;;;;;;4861183;29;20406;-74
2023/03/25 01:27:50;;;;;;;0.20;0.20;;;;;;;;;;4848477;23;20041;-75
2023/03/25 01:30:16;;;;;;;0.10;0.10;;;;;;;;;;4867398;29;20057;-73
2023/03/25 01:32:42;;;;;;;0.15;0.15;;;;;;;;;;4862583;29;20117;-73
2023/03/25 01:35:10;;;;;;;0.10;0.10;;;;;;;;;;4860769;29;20045;-73
2023/03/25 01:37:37;;;;;;;0.10;0.10;;;;;;;;;;4846903;29;20069;-73
2023/03/25 01:43:40;;;;;;;0.17;0.17;;;;;;;;;;4820194;29;20065;-73
2023/03/25 01:46:43;;;;;;;0.10;0.10;;;;;;;;;;4795665;29;20174;-73
2023/03/25 01:49:22;;;;;;;0.10;0.10;;;;;;;;;;4853241;29;20061;-72
2023/03/25 01:51:52;;;;;;;0.10;0.10;;;;;;;;;;4861833;29;20125;-75
2023/03/25 01:54:19;;;;;;;0.10;0.10;;;;;;;;;;4879877;29;20056;-73
2023/03/25 01:56:46;;;;;;;0.20;0.20;;;;;;;;;;4860574;29;20053;-73
2023/03/25 01:59:17;;;;;;;0.17;0.17;;;;;;;;;;4875688;29;20072;-74
2023/03/25 02:01:45;;;;;;;0.10;0.10;;;;;;;;;;4864391;29;20497;-73
2023/03/25 02:04:12;;;;;;;0.10;0.10;;;;;;;;;;4860247;29;20454;-73
2023/03/25 02:06:38;;;;;;;0.20;0.20;;;;;;;;;;4874813;29;20401;-74
2023/03/25 02:09:10;;;;;;;0.10;0.10;;;;;;;;;;4870078;29;20249;-73
2023/03/25 02:11:37;;;;;;;0.10;0.10;;;;;;;;;;4861493;29;20118;-73
2023/03/25 02:14:08;;;;;;;0.10;0.10;;;;;;;;;;4861637;29;20056;-74
2023/03/25 02:16:52;;;;;;;0.20;0.20;;;;;;;;;;4854575;29;20053;-73
2023/03/25 02:19:39;;;;;;;0.15;0.15;;;;;;;;;;4857621;29;20064;-74
2023/03/25 02:22:16;;;;;;;0.20;0.20;;;;;;;;;;4843704;29;20502;-74
2023/03/25 02:24:56;;;;;;;0.17;0.17;;;;;;;;;;4863502;29;20526;-74
2023/03/25 02:30:35;;;;;;;0.20;0.20;;;;;;;;;;5788776;23;20322;-74
2023/03/25 02:50:27;;;;;;;0.10;0.10;;;;;;;;;;4854043;29;20582;-73
2023/03/25 02:58:08;;;;;;;0.10;0.10;;;;;;;;;;4312565;23;20518;-73
2023/03/25 03:00:37;;;;;;;0.10;0.10;;;;;;;;;;4816151;29;20066;-74
2023/03/25 03:03:04;;;;;;;0.20;0.20;;;;;;;;;;4814900;29;20121;-73
2023/03/25 03:05:32;;;;;;;0.20;0.20;;;;;;;;;;4833756;29;20054;-72
2023/03/25 03:08:05;;;;;;;0.15;0.15;;;;;;;;;;4807277;29;20544;-73
2023/03/25 03:10:40;;;;;;;0.10;0.10;;;;;;;;;;4829279;29;20137;-72
2023/03/25 03:13:25;;;;;;;0.10;0.10;;;;;;;;;;4976811;23;20144;-73
2023/03/25 03:19:33;;;;;;;0.20;0.20;;;;;;;;;;4843062;29;20056;-73
2023/03/25 03:22:02;;;;;;;0.10;0.10;;;;;;;;;;4827023;29;20200;-73
2023/03/25 03:24:47;;;;;;;0.10;0.10;;;;;;;;;;4840674;29;20057;-73
2023/03/25 03:27:32;;;;;;;0.10;0.10;;;;;;;;;;4835035;29;20092;-73
2023/03/25 03:30:11;;;;;;;0.10;0.10;;;;;;;;;;4855572;29;20124;-73
2023/03/25 03:32:40;;;;;;;0.20;0.20;;;;;;;;;;4841620;29;20475;-73
2023/03/25 03:35:27;;;;;;;0.10;0.10;;;;;;;;;;4842874;29;20057;-73
2023/03/25 03:37:59;;;;;;;0.15;0.15;;;;;;;;;;4838263;29;20464;-73
2023/03/25 03:40:26;;;;;;;0.20;0.20;;;;;;;;;;4848288;29;20053;-74
2023/03/25 03:42:56;;;;;;;0.20;0.20;;;;;;;;;;4844725;29;20038;-73
2023/03/25 03:45:29;;;;;;;0.10;0.10;;;;;;;;;;4833466;29;20046;-73
2023/03/25 03:47:57;;;;;;;0.20;0.20;;;;;;;;;;4830445;29;20081;-73
2023/03/25 03:50:26;;;;;;;0.10;0.10;;;;;;;;;;4826556;29;20136;-73
2023/03/25 03:53:04;;;;;;;0.20;0.20;;;;;;;;;;4860548;29;20038;-73
2023/03/25 03:55:36;;;;;;;0.20;0.20;;;;;;;;;;4833049;29;20050;-73
2023/03/25 03:58:05;;;;;;;0.20;0.20;;;;;;;;;;4822144;29;20505;-73
2023/03/25 04:00:35;;;;;;;0.20;0.20;;;;;;;;;;4841481;29;20451;-74
2023/03/25 04:03:39;;;;;;;0.10;0.10;;;;;;;;;;4844526;29;20140;-73
2023/03/25 04:06:14;;;;;;;0.13;0.13;;;;;;;;;;5143473;24;20077;-74
2023/03/25 04:08:58;;;;;;;0.20;0.20;;;;;;;;;;4836581;29;20089;-73
2023/03/25 04:11:32;;;;;;;0.20;0.20;;;;;;;;;;4820579;29;20136;-73
2023/03/25 04:13:59;;;;;;;0.20;0.20;;;;;;;;;;4816972;29;20639;-73
2023/03/25 04:16:25;;;;;;;0.15;0.15;;;;;;;;;;4823120;29;20322;-73
2023/03/25 04:18:57;;;;;;;0.20;0.20;;;;;;;;;;4828839;29;20210;-73
2023/03/25 04:21:24;;;;;;;0.10;0.10;;;;;;;;;;4838547;24;20054;-73
2023/03/25 04:23:50;;;;;;;0.20;0.20;;;;;;;;;;4856980;29;20149;-73
2023/03/25 04:26:17;;;;;;;0.10;0.10;;;;;;;;;;4839562;29;20049;-74
2023/03/25 04:28:44;;;;;;;0.10;0.10;;;;;;;;;;4840180;29;20110;-73
2023/03/25 04:31:14;;;;;;;0.20;0.20;;;;;;;;;;4856990;29;20049;-73
2023/03/25 04:33:45;;;;;;;0.10;0.10;;;;;;;;;;4856039;29;20457;-72
2023/03/25 04:41:16;;;;;;;0.10;0.10;;;;;;;;;;4853955;29;20113;-72
2023/03/25 04:43:43;;;;;;;0.10;0.10;;;;;;;;;;4839934;29;20045;-72
2023/03/25 04:46:16;;;;;;;0.10;0.10;;;;;;;;;;4838893;29;20085;-72
2023/03/25 04:48:43;;;;;;;0.10;0.10;;;;;;;;;;4839323;29;20128;-75
2023/03/25 04:51:16;;;;;;;0.10;0.10;;;;;;;;;;4857533;29;20050;-73
2023/03/25 04:53:42;;;;;;;0.10;0.10;;;;;;;;;;4840584;29;20041;-72
2023/03/25 04:56:14;;;;;;;0.20;0.20;;;;;;;;;;4858303;29;20455;-73
2023/03/25 04:58:41;;;;;;;0.15;0.15;;;;;;;;;;4856294;29;20052;-75
2023/03/25 05:01:10;;;;;;;0.10;0.10;;;;;;;;;;4839834;29;20069;-73
2023/03/25 05:03:38;;;;;;;0.20;0.20;;;;;;;;;;4857410;29;20549;-72
2023/03/25 05:06:06;;;;;;;0.10;0.10;;;;;;;;;;4841346;29;20046;-73
2023/03/25 05:09:00;;;;;;;0.10;0.10;;;;;;;;;;5027343;23;20126;-74
2023/03/25 05:11:30;;;;;;;0.20;0.20;;;;;;;;;;4854630;29;20058;-74
2023/03/25 05:13:59;;;;;;;0.10;0.10;;;;;;;;;;4844570;29;20410;-73
2023/03/25 05:16:40;;;;;;;0.20;0.20;;;;;;;;;;5504952;23;20304;-74
2023/03/25 05:19:06;;;;;;;;;;;;;;;;;;4847931;29;20063;-73
2023/03/25 05:21:35;;;;;;;0.10;0.10;;;;;;;;;;4840193;29;20296;-74
2023/03/25 05:27:48;;;;;;;0.10;0.10;;;;;;;;;;4827585;29;20079;-74
2023/03/25 05:30:51;;;;;;;0.20;0.20;;;;;;;;;;4836177;29;20152;-73
2023/03/25 05:36:56;;;;;;;0.10;0.10;;;;;;;;;;4836534;29;20103;-74
2023/03/25 05:49:32;;;;;;;0.10;0.10;;;;;;;;;;4821429;29;20050;-74
2023/03/25 05:55:05;;;;;;;0.20;0.20;;;;;;;;;;4819437;29;20447;-74
2023/03/25 06:01:01;;;;;;;0.20;0.20;;;;;;;;;;4829975;29;20098;-74
2023/03/25 06:03:27;;;;;;;0.20;0.20;;;;;;;;;;4825561;29;20089;-73
2023/03/25 06:05:53;;;;;;;0.20;0.20;;;;;;;;;;4820452;29;20057;-74
2023/03/25 06:08:24;;;;;;;0.10;0.10;;;;;;;;;;4837302;29;20106;-74
2023/03/25 06:10:57;;;;;;;0.10;0.10;;;;;;;;;;4840167;29;20415;-75
2023/03/25 06:13:23;;;;;;;0.10;0.10;;;;;;;;;;4823616;29;20046;-75
2023/03/25 06:21:59;;;;;;;0.10;0.10;;;;;;;;;;4954979;23;20474;-74
2023/03/25 06:24:25;;;;;;;0.10;0.10;;;;;;;;;;4845307;29;20290;-74
2023/03/25 06:27:00;;;;;;;0.10;0.10;;;;;;;;;;4840133;29;20570;-75
2023/03/25 06:29:36;;;;;;;0.10;0.10;;;;;;;;;;4842011;29;20046;-75
2023/03/25 06:35:37;;;;;;;0.10;0.10;;;;;;;;;;4857790;29;20403;-73
2023/03/25 06:38:10;;;;;;;0.10;0.10;;;;;;;;;;4859933;29;20060;-73
2023/03/25 06:40:39;;;;;;;0.10;0.10;;;;;;;;;;4841441;29;20041;-74
2023/03/25 06:43:23;;;;;;;0.10;0.10;;;;;;;;;;4852771;29;20049;-74
2023/03/25 06:49:12;;;;;;;0.10;0.10;;;;;;;;;;4851798;29;20081;-75
2023/03/25 06:51:47;;;;;;;0.13;0.13;;;;;;;;;;4829845;29;20106;-74
2023/03/25 06:54:38;;;;;;;0.20;0.20;;;;;;;;;;4857446;29;20045;-74
2023/03/25 06:57:04;;;;;;;0.20;0.20;;;;;;;;;;4842160;29;20049;-74
2023/03/25 07:00:08;;;;;;;0.20;0.20;;;;;;;;;;4863182;29;20961;-74
2023/03/25 07:12:47;;;;;;;0.17;0.17;;;;;;;;;;4852364;29;20179;-74
2023/03/25 07:15:13;;;;;;;0.20;0.20;;;;;;;;;;4839684;29;20052;-74
2023/03/25 07:17:48;;;;;;;0.10;0.10;;;;;;;;;;4856796;29;20125;-74
2023/03/25 07:20:20;;;;;;;0.20;0.20;;;;;;;;;;4802555;29;1184085;-74
2023/03/25 07:23:20;;;;;;;0.13;0.13;;;;;;;;;;4782821;30;20051;-75
2023/03/25 07:25:46;;;;;;;0.10;0.10;;;;;;;;;;4784438;29;20142;-73
2023/03/25 07:28:12;;;;;;;0.10;0.10;;;;;;;;;;4800905;29;20062;-73
2023/03/25 07:34:38;;;;;;;0.10;0.10;;;;;;;;;;4853992;29;20514;-74
2023/03/25 07:42:21;;;;;;;0.10;0.10;;;;;;;;;;5069571;23;20046;-74
2023/03/25 07:45:05;;;;;;;0.10;0.10;;;;;;;;;;4840489;29;20410;-74
2023/03/25 07:51:12;;;;;;;;;;;;;;;;;;;;;
2023/03/25 07:57:13;;;;;;;0.10;0.10;;;;;;;;;;4833718;29;20054;-73
2023/03/25 07:59:39;;;;;;;0.10;0.10;;;;;;;;;;4816633;29;20069;-73
2023/03/25 08:03:05;;;;;;;0.10;0.10;;;;;;;;;;4791770;29;20062;-73
2023/03/25 08:05:47;;;;;;;0.10;0.10;;;;;;;;;;4768372;29;20067;-74
2023/03/25 08:08:42;;;;;;;0.13;0.13;;;;;;;;;;4794667;29;20059;-73
2023/03/25 08:11:11;;;;;;;0.10;0.10;;;;;;;;;;4748473;30;20102;-73
2023/03/25 08:17:18;;;;;;;0.22;0.17;;;;;;;;;;4778980;29;20066;-73
2023/03/25 08:22:20;;;;;;;0.10;0.10;;;;;;;;;;4917590;23;20063;-73
2023/03/25 08:24:50;;;;;;;0.10;0.10;;;;;;;;;;4810597;29;20058;-73
2023/03/25 08:27:16;;;;;;;0.10;0.10;;;;;;;;;;4818026;29;20531;-74
2023/03/25 08:29:42;;;;;;;0.10;0.10;;;;;;;;;;4808384;29;20099;-73
2023/03/25 08:32:25;;;;;;;0.20;0.20;;;;;;;;;;4806825;29;20050;-75
2023/03/25 08:47:22;;;;;;;0.10;0.10;;;;;;;;;;4861055;23;20073;-75
2023/03/25 08:49:48;;;;;;;0.13;0.13;;;;;;;;;;4857080;29;20132;-75
2023/03/25 08:52:15;;;;;;;0.10;0.10;;;;;;;;;;4830776;29;20144;-75
2023/03/25 08:54:41;;;;;;;0.10;0.10;;;;;;;;;;4844621;29;20055;-76
2023/03/25 08:57:07;;;;;;;0.10;0.10;;;;;;;;;;4846826;29;20050;-74
2023/03/25 08:59:33;;;;;;;0.10;0.10;;;;;;;;;;4855528;29;20059;-74
2023/03/25 09:01:59;;;;;;;0.20;0.20;;;;;;;;;;4849171;29;20569;-75
2023/03/25 09:04:25;;;;;;;0.20;0.20;;;;;;;;;;4824517;29;20053;-74
2023/03/25 09:06:51;;;;;;;0.20;0.20;;;;;;;;;;4829337;29;20058;-75
2023/03/25 09:09:17;;;;;;;0.10;0.10;;;;;;;;;;4848020;29;20076;-75
2023/03/25 09:11:44;;;;;;;0.10;0.10;;;;;;;;;;4826582;29;20052;-74
2023/03/25 09:14:10;;;;;;;0.10;0.10;;;;;;;;;;4859808;29;20262;-75
2023/03/25 09:16:41;;;;;;;0.20;0.20;;;;;;;;;;4834198;29;20041;-74
2023/03/25 09:19:08;;;;;;;0.20;0.20;;;;;;;;;;4828200;29;20668;-81
2023/03/25 09:21:34;;;;;;;0.10;0.10;;;;;;;;;;4824769;29;20136;-77
2023/03/25 09:24:00;;;;;;;0.10;0.10;;;;;;;;;;4841101;29;20204;-77
2023/03/25 09:26:27;;;;;;;0.10;0.10;;;;;;;;;;4837890;29;20133;-77
2023/03/25 09:28:55;;;;;;;0.10;0.10;;;;;;;;;;4829463;29;20098;-76
2023/03/25 09:31:21;;;;;;;0.10;0.10;;;;;;;;;;4857371;29;20065;-76
2023/03/25 09:33:51;;;;;;;0.10;0.10;;;;;;;;;;4839456;29;20129;-76
2023/03/25 09:36:17;;;;;;;0.10;0.10;;;;;;;;;;4842638;29;20107;-77
2023/03/25 09:38:46;;;;;;;0.10;0.10;;;;;;;;;;4840191;29;20084;-77
2023/03/25 09:41:21;;;;;;;0.10;0.10;;;;;;;;;;4841325;29;20068;-76
2023/03/25 09:43:47;;;;;;;0.15;0.15;;;;;;;;;;4860069;29;20049;-75
2023/03/25 09:46:14;;;;;;;0.10;0.10;;;;;;;;;;4860442;29;20133;-77
2023/03/25 09:48:45;;;;;;;0.10;0.10;;;;;;;;;;4860057;29;20061;-76
2023/03/25 09:51:15;;;;;;;0.10;0.10;;;;;;;;;;4858576;29;20037;-76
2023/03/25 09:53:53;;;;;;;0.10;0.10;;;;;;;;;;4844019;29;20092;-77
2023/03/25 09:56:24;;;;;;;0.10;0.10;;;;;;;;;;4859201;29;20049;-76
2023/03/25 09:59:05;;;;;;;0.10;0.10;;;;;;;;;;4860712;29;20049;-76
2023/03/25 10:01:46;;;;;;;0.10;0.10;;;;;;;;;;4843064;29;20085;-76
2023/03/25 10:07:21;;;;;;;0.20;0.20;;;;;;;;;;5060235;23;20061;-76
2023/03/25 10:10:06;;;;;;;0.10;0.10;;;;;;;;;;4840524;29;20060;-76
2023/03/25 10:12:43;;;;;;;0.10;0.10;;;;;;;;;;4842167;29;20041;-76
2023/03/25 10:15:13;;;;;;;0.10;0.10;;;;;;;;;;4859881;29;20058;-76
2023/03/25 10:18:01;;;;;;;0.10;0.10;;;;;;;;;;4842921;29;20447;-77
2023/03/25 10:20:30;;;;;;;0.10;0.10;;;;;;;;;;4851255;29;20517;-77
2023/03/25 10:23:31;;;;;;;0.20;0.20;;;;;;;;;;4834380;29;20053;-77
2023/03/25 10:26:30;;;;;;;0.10;0.10;;;;;;;;;;4804903;29;20054;-77
2023/03/25 10:29:02;;;;;;;0.10;0.10;;;;;;;;;;4814690;29;20058;-77
2023/03/25 10:31:30;;;;;;;0.20;0.20;;;;;;;;;;4857467;29;20133;-77
2023/03/25 10:34:07;;;;;;;0.20;0.20;;;;;;;;;;4856679;29;20279;-77
2023/03/25 10:36:39;;;;;;;0.10;0.10;;;;;;;;;;4844926;29;20141;-77
2023/03/25 10:39:19;;;;;;;0.10;0.10;;;;;;;;;;4849755;23;20513;-77
2023/03/25 10:42:25;;;;;;;0.10;0.10;;;;;;;;;;4810120;29;20696;-76
2023/03/25 10:44:52;;;;;;;0.10;0.10;;;;;;;;;;4822342;29;20050;-77
2023/03/25 10:47:26;;;;;;;0.10;0.10;;;;;;;;;;4822060;29;20046;-74
2023/03/25 10:50:05;;;;;;;0.10;0.10;;;;;;;;;;4800591;29;20054;-76
2023/03/25 10:52:37;;;;;;;0.10;0.10;;;;;;;;;;4805937;29;20273;-77
2023/03/25 10:55:22;;;;;;;0.10;0.10;;;;;;;;;;4807398;29;20054;-74
2023/03/25 10:58:00;;;;;;;0.10;0.10;;;;;;;;;;4805373;29;20054;-75
2023/03/25 11:00:47;;;;;;;0.13;0.13;;;;;;;;;;4822055;29;20055;-76
2023/03/25 11:03:33;;;;;;;0.10;0.10;;;;;;;;;;4822201;29;20129;-76
2023/03/25 11:05:59;;;;;;;0.10;0.10;;;;;;;;;;4806090;29;20069;-76
2023/03/25 11:08:26;;;;;;;0.10;0.10;;;;;;;;;;4806219;29;20050;-77
2023/03/25 11:11:08;;;;;;;0.10;0.10;;;;;;;;;;4822384;29;20068;-76
2023/03/25 11:13:40;;;;;;;0.10;0.10;;;;;;;;;;4803704;29;20063;-77
2023/03/25 11:16:07;;;;;;;0.20;0.20;;;;;;;;;;4821382;29;20098;-77
2023/03/25 11:18:47;;;;;;;0.10;0.10;;;;;;;;;;4806002;29;20046;-77
2023/03/25 11:21:17;;;;;;;0.10;0.10;;;;;;;;;;4807808;29;20046;-77
2023/03/25 11:23:48;;;;;;;0.10;0.10;;;;;;;;;;4806823;29;20058;-77
2023/03/25 11:26:18;;;;;;;0.10;0.10;;;;;;;;;;4821700;29;20592;-78
2023/03/25 11:28:45;;;;;;;0.10;0.10;;;;;;;;;;4821328;29;20424;-77
2023/03/25 11:34:52;;;;;;;0.10;0.10;;;;;;;;;;4821611;29;20046;-76
2023/03/25 11:37:23;;;;;;;0.17;0.17;;;;;;;;;;4820261;29;20127;-77
2023/03/25 11:39:53;;;;;;;0.10;0.10;;;;;;;;;;4804042;29;20050;-77
2023/03/25 11:42:42;;;;;;;0.20;0.20;;;;;;;;;;4804705;29;20781;-77
2023/03/25 11:45:33;;;;;;;0.10;0.10;;;;;;;;;;4822199;29;20332;-76
2023/03/25 11:48:00;;;;;;;0.10;0.10;;;;;;;;;;4807075;29;20621;-78
2023/03/25 11:50:36;;;;;;;0.10;0.10;;;;;;;;;;4805075;29;20051;-77
2023/03/25 11:53:03;;;;;;;0.10;0.10;;;;;;;;;;4802013;29;20059;-77
2023/03/25 11:55:55;;;;;;;0.10;0.10;;;;;;;;;;4821141;29;20150;-76
2023/03/25 11:58:31;;;;;;;0.10;0.10;;;;;;;;;;4794704;29;20130;-76
2023/03/25 12:01:05;;;;;;;0.10;0.10;;;;;;;;;;4817993;29;20042;-76
2023/03/25 12:03:33;;;;;;;0.10;0.10;;;;;;;;;;4803870;29;20053;-77
2023/03/25 12:06:27;;;;;;;0.10;0.10;;;;;;;;;;4821543;29;20100;-76
2023/03/25 12:08:56;;;;;;;0.13;0.13;;;;;;;;;;4820873;29;20099;-77
2023/03/25 12:11:42;;;;;;;0.20;0.20;;;;;;;;;;4804491;29;20061;-77
2023/03/25 12:14:17;;;;;;;0.10;0.10;;;;;;;;;;4801784;29;20061;-76
2023/03/25 12:16:48;;;;;;;0.10;0.10;;;;;;;;;;4820822;29;20082;-77
2023/03/25 12:19:32;;;;;;;0.10;0.10;;;;;;;;;;4801615;29;20507;-76
2023/03/25 12:22:18;;;;;;;0.10;0.10;;;;;;;;;;4794406;29;20522;-75
2023/03/25 12:25:03;;;;;;;0.10;0.10;;;;;;;;;;4802084;29;20054;-75
2023/03/25 12:27:29;;;;;;;0.15;0.15;;;;;;;;;;4813563;29;20053;-75
2023/03/25 12:29:59;;;;;;;0.10;0.10;;;;;;;;;;4811655;29;20411;-77
2023/03/25 12:32:40;;;;;;;0.10;0.10;;;;;;;;;;4821469;29;20107;-77
2023/03/25 12:35:21;;;;;;;0.17;0.17;;;;;;;;;;4803638;29;20448;-74
2023/03/25 12:37:51;;;;;;;0.10;0.10;;;;;;;;;;4799822;29;20047;-74
2023/03/25 12:40:29;;;;;;;0.20;0.20;;;;;;;;;;4777806;29;20130;-74
2023/03/25 12:43:05;;;;;;;0.10;0.10;;;;;;;;;;4794972;29;20145;-76
2023/03/25 12:45:40;;;;;;;0.10;0.10;;;;;;;;;;4799922;29;20078;-77
2023/03/25 12:48:06;;;;;;;0.15;0.15;;;;;;;;;;4801891;29;20058;-75
2023/03/25 12:50:52;;;;;;;0.15;0.15;;;;;;;;;;4803029;29;20045;-76
2023/03/25 12:53:33;;;;;;;0.10;0.10;;;;;;;;;;4802108;29;20051;-76
2023/03/25 12:56:17;;;;;;;0.10;0.10;;;;;;;;;;4785415;29;20085;-75
2023/03/25 12:59:01;;;;;;;0.10;0.10;;;;;;;;;;4802187;29;20057;-76
2023/03/25 13:01:27;;;;;;;0.13;0.13;;;;;;;;;;4783871;29;20055;-77
2023/03/25 13:03:53;;;;;;;0.10;0.10;;;;;;;;;;4786846;29;20043;-75
2023/03/25 13:06:38;;;;;;;0.10;0.10;;;;;;;;;;4784069;29;20046;-75
2023/03/25 13:09:04;;;;;;;0.10;0.10;;;;;;;;;;4784112;29;20051;-75
2023/03/25 13:11:37;;;;;;;0.20;0.20;;;;;;;;;;4775505;29;20051;-77
2023/03/25 13:14:07;;;;;;;0.10;0.10;;;;;;;;;;4785137;29;20098;-77
2023/03/25 13:16:35;;;;;;;0.10;0.10;;;;;;;;;;4785971;29;20168;-78
2023/03/25 13:19:03;;;;;;;0.10;0.10;;;;;;;;;;4811284;29;20050;-78
2023/03/25 13:21:32;;;;;;;0.10;0.10;;;;;;;;;;4794772;29;20108;-77
2023/03/25 13:24:01;;;;;;;0.10;0.10;;;;;;;;;;4785038;29;20051;-76
2023/03/25 13:26:28;;;;;;;0.10;0.10;;;;;;;;;;4785245;29;20054;-78
2023/03/25 13:29:21;;;;;;;0.10;0.10;;;;;;;;;;4788381;29;20047;-77
2023/03/25 13:31:48;;;;;;;0.10;0.10;;;;;;;;;;4799462;29;20066;-77
2023/03/25 13:34:34;;;;;;;0.10;0.10;;;;;;;;;;4785795;29;20410;-76
2023/03/25 13:37:35;;;;;;;0.10;0.10;;;;;;;;;;4802886;29;20057;-76
2023/03/25 13:40:13;;;;;;;0.10;0.10;;;;;;;;;;4776795;29;20141;-76
2023/03/25 13:42:51;;;;;;;0.10;0.10;;;;;;;;;;4801341;29;20129;-77
2023/03/25 13:45:21;;;;;;;0.10;0.10;;;;;;;;;;4821365;29;20054;-77
2023/03/25 13:48:06;;;;;;;0.20;0.20;;;;;;;;;;4804768;29;20051;-75
2023/03/25 13:50:33;;;;;;;0.20;0.20;;;;;;;;;;4803865;29;20053;-75
2023/03/25 13:53:08;;;;;;;0.10;0.10;;;;;;;;;;4803767;29;20045;-75
2023/03/25 13:55:37;;;;;;;0.10;0.10;;;;;;;;;;4803621;29;20409;-78
2023/03/25 13:58:18;;;;;;;0.10;0.10;;;;;;;;;;4803008;29;20399;-78
2023/03/25 14:00:47;;;;;;;0.20;0.20;;;;;;;;;;4799082;29;20070;-77
2023/03/25 14:03:16;;;;;;;0.10;0.10;;;;;;;;;;4820094;29;20081;-77
2023/03/25 14:05:42;;;;;;;0.20;0.20;;;;;;;;;;4804449;29;20054;-77
2023/03/25 14:08:47;;;;;;;0.10;0.10;;;;;;;;;;4819997;29;20046;-78
2023/03/25 14:11:36;;;;;;;0.10;0.10;;;;;;;;;;4817772;29;20089;-77
2023/03/25 14:14:09;;;;;;;0.10;0.10;;;;;;;;;;4816405;29;20057;-76
2023/03/25 14:16:37;;;;;;;0.10;0.10;;;;;;;;;;4791060;29;20508;-77
2023/03/25 14:19:09;;;;;;;0.10;0.10;;;;;;;;;;4820273;29;20055;-77
2023/03/25 14:21:38;;;;;;;0.20;0.20;;;;;;;;;;4820627;29;20061;-77
2023/03/25 14:24:23;;;;;;;0.10;0.10;;;;;;;;;;4804033;29;20042;-76
2023/03/25 14:26:54;;;;;;;0.10;0.10;;;;;;;;;;4817258;29;20096;-77
2023/03/25 14:29:20;;;;;;;0.20;0.20;;;;;;;;;;4807106;29;20444;-76
2023/03/25 14:32:00;;;;;;;0.10;0.10;;;;;;;;;;4822249;29;20065;-76
2023/03/25 14:34:38;;;;;;;0.10;0.10;;;;;;;;;;4820253;29;20050;-77
2023/03/25 14:37:07;;;;;;;0.15;0.15;;;;;;;;;;4804868;29;20149;-76
2023/03/25 14:39:33;;;;;;;0.10;0.10;;;;;;;;;;4820815;29;20058;-77
2023/03/25 14:42:00;;;;;;;0.20;0.20;;;;;;;;;;4804177;29;20058;-76
2023/03/25 14:44:31;;;;;;;0.10;0.10;;;;;;;;;;4823272;29;20046;-78
2023/03/25 14:47:16;;;;;;;0.10;0.10;;;;;;;;;;4802626;29;20070;-77
2023/03/25 14:49:49;;;;;;;0.17;0.17;;;;;;;;;;4823187;29;20046;-77
2023/03/25 14:52:16;;;;;;;0.20;0.20;;;;;;;;;;4821360;29;20050;-77
2023/03/25 14:54:42;;;;;;;0.13;0.13;;;;;;;;;;4821133;29;20081;-77
2023/03/25 14:57:41;;;;;;;0.20;0.20;;;;;;;;;;4805141;29;20396;-76
2023/03/25 15:00:11;;;;;;;0.10;0.10;;;;;;;;;;4794756;29;20066;-76
2023/03/25 15:02:38;;;;;;;0.10;0.10;;;;;;;;;;4814191;29;20073;-76
2023/03/25 15:05:17;;;;;;;0.10;0.10;;;;;;;;;;4822194;29;20600;-75
2023/03/25 15:08:03;;;;;;;0.10;0.10;;;;;;;;;;4823358;29;20042;-76
2023/03/25 15:10:31;;;;;;;0.10;0.10;;;;;;;;;;4816309;29;20054;-78
2023/03/25 15:13:05;;;;;;;0.15;0.15;;;;;;;;;;4804279;29;20058;-75
2023/03/25 15:15:33;;;;;;;0.20;0.20;;;;;;;;;;4822110;29;20046;-75
2023/03/25 15:17:59;;;;;;;0.10;0.10;;;;;;;;;;4805044;29;20086;-76
2023/03/25 15:20:35;;;;;;;0.10;0.10;;;;;;;;;;4803152;29;20068;-75
2023/03/25 15:23:27;;;;;;;0.20;0.20;;;;;;;;;;4821438;29;20046;-74
2023/03/25 15:25:55;;;;;;;0.10;0.10;;;;;;;;;;4813076;29;20055;-76
2023/03/25 15:28:40;;;;;;;0.10;0.10;;;;;;;;;;4803466;29;20052;-75
2023/03/25 15:31:23;;;;;;;0.20;0.20;;;;;;;;;;4819947;29;20057;-76
2023/03/25 15:34:07;;;;;;;0.10;0.10;;;;;;;;;;4820179;29;20050;-76
2023/03/25 15:36:44;;;;;;;0.10;0.10;;;;;;;;;;4819126;29;20051;-78
2023/03/25 15:39:15;;;;;;;0.10;0.10;;;;;;;;;;4805067;29;20106;-76
2023/03/25 15:42:00;;;;;;;0.10;0.10;;;;;;;;;;4817164;29;20065;-76
2023/03/25 15:44:48;;;;;;;0.10;0.10;;;;;;;;;;4804606;29;20038;-77
2023/03/25 15:47:20;;;;;;;0.10;0.10;;;;;;;;;;4802103;29;20066;-77
2023/03/25 15:49:55;;;;;;;0.20;0.20;;;;;;;;;;4804764;29;20093;-77
2023/03/25 15:52:24;;;;;;;0.20;0.20;;;;;;;;;;4820843;29;20459;-76
2023/03/25 15:55:00;;;;;;;0.20;0.20;;;;;;;;;;4820886;29;20052;-76
2023/03/25 15:57:29;;;;;;;0.13;0.13;;;;;;;;;;4803884;29;20061;-77
2023/03/25 16:00:15;;;;;;;0.10;0.10;;;;;;;;;;4798576;29;20058;-76
2023/03/25 16:02:41;;;;;;;0.17;0.17;;;;;;;;;;4804084;29;20046;-78
2023/03/25 16:05:07;;;;;;;0.10;0.10;;;;;;;;;;4822265;29;20046;-76
2023/03/25 16:07:34;;;;;;;0.10;0.10;;;;;;;;;;4803312;29;20511;-76
2023/03/25 16:10:05;;;;;;;0.10;0.10;;;;;;;;;;4819793;29;20057;-74
2023/03/25 16:12:31;;;;;;;0.20;0.20;;;;;;;;;;4818687;29;20054;-75
2023/03/25 16:14:58;;;;;;;0.13;0.13;;;;;;;;;;4820430;29;20056;-74
2023/03/25 16:17:30;;;;;;;0.10;0.10;;;;;;;;;;4819036;29;20061;-76
2023/03/25 16:20:00;;;;;;;0.15;0.15;;;;;;;;;;4819682;29;20381;-76
2023/03/25 16:22:27;;;;;;;0.10;0.10;;;;;;;;;;4805123;29;20149;-76
2023/03/25 16:24:54;;;;;;;0.10;0.10;;;;;;;;;;4804376;29;20054;-78
2023/03/25 16:27:25;;;;;;;0.20;0.20;;;;;;;;;;4801359;29;20177;-76
2023/03/25 16:29:52;;;;;;;0.10;0.10;;;;;;;;;;4804280;29;20054;-77
2023/03/25 16:32:20;;;;;;;0.10;0.10;;;;;;;;;;4804767;29;20066;-77
2023/03/25 16:34:47;;;;;;;0.10;0.10;;;;;;;;;;4822153;29;20051;-74
2023/03/25 16:37:13;;;;;;;0.20;0.20;;;;;;;;;;4820883;29;20154;-77
2023/03/25 16:39:39;;;;;;;0.10;0.10;;;;;;;;;;4805135;29;20586;-77
2023/03/25 16:42:17;;;;;;;0.13;0.13;;;;;;;;;;4800433;29;20491;-77
2023/03/25 16:44:44;;;;;;;0.10;0.10;;;;;;;;;;4820283;29;20050;-77
2023/03/25 16:47:14;;;;;;;0.10;0.10;;;;;;;;;;4807030;29;20440;-78
2023/03/25 16:49:41;;;;;;;0.10;0.10;;;;;;;;;;4805889;29;20050;-77
2023/03/25 16:52:10;;;;;;;0.10;0.10;;;;;;;;;;4818840;29;20046;-77
2023/03/25 16:54:44;;;;;;;0.20;0.20;;;;;;;;;;4838316;29;20046;-75
2023/03/25 16:57:15;;;;;;;0.10;0.10;;;;;;;;;;4816816;29;20088;-74
2023/03/25 16:59:41;;;;;;;;;;;;;;;;;;4804543;29;20046;-76
2023/03/25 17:02:25;;;;;;;0.10;0.10;;;;;;;;;;4799804;29;20003;-75
2023/03/25 17:04:53;;;;;;;0.10;0.10;;;;;;;;;;4803548;29;20500;-76
2023/03/25 17:07:21;;;;;;;0.17;0.17;;;;;;;;;;4803898;29;20061;-76
2023/03/25 17:09:51;;;;;;;0.20;0.20;;;;;;;;;;4821053;29;20198;-75
2023/03/25 17:12:19;;;;;;;0.10;0.10;;;;;;;;;;4803899;29;20122;-76
2023/03/25 17:14:46;;;;;;;0.10;0.10;;;;;;;;;;4802578;29;20046;-75
2023/03/25 17:17:15;;;;;;;0.10;0.10;;;;;;;;;;4820495;29;20050;-75
2023/03/25 17:19:44;;;;;;;0.15;0.15;;;;;;;;;;4803362;29;20058;-75
2023/03/25 17:22:17;;;;;;;0.20;0.20;;;;;;;;;;4821231;29;20050;-75
2023/03/25 17:24:48;;;;;;;0.20;0.20;;;;;;;;;;4821384;29;20099;-75
2023/03/25 17:27:20;;;;;;;0.10;0.10;;;;;;;;;;4802313;29;20046;-75